sensor_id;sensor_type;location;lat;lon;timestamp;pressure;altitude;pressure_sealevel;temperature;humidity
27685;BME280;46113;50.130;8.526;2022-12-05T05:17:06;100111.91;;;4.46;56.22
27685;BME280;46113;50.130;8.526;2022-12-05T05:19:33;100115.31;;;4.51;56.52
27685;BME280;46113;50.130;8.526;2022-12-05T05:21:59;100128.88;;;4.72;55.97
27685;BME280;46113;50.130;8.526;2022-12-05T05:24:26;100117.94;;;4.51;55.88
27685;BME280;46113;50.130;8.526;2022-12-05T05:26:52;100123.63;;;4.24;57.28
27685;BME280;46113;50.130;8.526;2022-12-05T05:29:23;100125.53;;;4.18;57.27
27685;BME280;46113;50.130;8.526;2022-12-05T05:34:26;100126.03;;;4.38;56.44
27685;BME280;46113;50.130;8.526;2022-12-05T05:36:54;100130.50;;;4.33;56.70
27685;BME280;46113;50.130;8.526;2022-12-05T05:39:20;100124.53;;;5.13;54.90
27685;BME280;46113;50.130;8.526;2022-12-05T05:41:47;100125.41;;;5.15;55.14
27685;BME280;46113;50.130;8.526;2022-12-05T05:44:14;100120.94;;;5.19;54.57
27685;BME280;46113;50.130;8.526;2022-12-05T05:46:46;100128.81;;;5.19;54.71
27685;BME280;46113;50.130;8.526;2022-12-05T05:49:12;100127.88;;;4.79;55.62
27685;BME280;46113;50.130;8.526;2022-12-05T05:51:39;100115.50;;;5.28;54.66
27685;BME280;46113;50.130;8.526;2022-12-05T05:57:06;100119.09;;;5.64;53.66
27685;BME280;46113;50.130;8.526;2022-12-05T05:59:32;100121.28;;;5.43;54.27
27685;BME280;46113;50.130;8.526;2022-12-05T06:01:59;100126.41;;;4.65;55.98
27685;BME280;46113;50.130;8.526;2022-12-05T06:04:38;100123.00;;;5.04;55.20
27685;BME280;46113;50.130;8.526;2022-12-05T06:07:05;100124.53;;;4.72;55.84
27685;BME280;46113;50.130;8.526;2022-12-05T06:09:41;100120.00;;;5.22;55.05
27685;BME280;46113;50.130;8.526;2022-12-05T06:12:09;100119.75;;;5.34;54.34
27685;BME280;46113;50.130;8.526;2022-12-05T06:14:52;100121.75;;;5.62;54.11
27685;BME280;46113;50.130;8.526;2022-12-05T06:17:18;100123.56;;;5.60;54.11
27685;BME280;46113;50.130;8.526;2022-12-05T06:19:45;100132.28;;;5.61;54.09
27685;BME280;46113;50.130;8.526;2022-12-05T06:22:11;100137.53;;;5.61;54.22
27685;BME280;46113;50.130;8.526;2022-12-05T06:24:51;100139.06;;;5.31;54.68
27685;BME280;46113;50.130;8.526;2022-12-05T06:27:18;100142.16;;;4.62;55.94
27685;BME280;46113;50.130;8.526;2022-12-05T06:29:44;100145.16;;;5.32;54.54
27685;BME280;46113;50.130;8.526;2022-12-05T06:32:11;100149.03;;;5.14;55.23
27685;BME280;46113;50.130;8.526;2022-12-05T06:34:37;100149.47;;;4.92;55.52
27685;BME280;46113;50.130;8.526;2022-12-05T06:37:05;100154.56;;;4.54;57.06
27685;BME280;46113;50.130;8.526;2022-12-05T06:39:38;100151.22;;;4.91;55.58
27685;BME280;46113;50.130;8.526;2022-12-05T06:42:05;100157.97;;;4.59;56.78
27685;BME280;46113;50.130;8.526;2022-12-05T06:44:31;100157.34;;;4.92;56.12
27685;BME280;46113;50.130;8.526;2022-12-05T06:46:58;100148.44;;;4.99;56.13
27685;BME280;46113;50.130;8.526;2022-12-05T06:49:24;100153.94;;;5.29;55.04
27685;BME280;46113;50.130;8.526;2022-12-05T06:52:03;100155.41;;;5.44;54.83
27685;BME280;46113;50.130;8.526;2022-12-05T06:54:30;100159.34;;;5.23;54.90
27685;BME280;46113;50.130;8.526;2022-12-05T06:56:56;100159.97;;;5.33;54.68
27685;BME280;46113;50.130;8.526;2022-12-05T06:59:23;100169.31;;;5.48;54.47
27685;BME280;46113;50.130;8.526;2022-12-05T07:01:49;100165.00;;;5.85;53.88
27685;BME280;46113;50.130;8.526;2022-12-05T07:04:19;100171.00;;;5.08;54.74
27685;BME280;46113;50.130;8.526;2022-12-05T07:06:47;100168.03;;;5.66;53.83
27685;BME280;46113;50.130;8.526;2022-12-05T07:09:27;100168.97;;;5.64;53.98
27685;BME280;46113;50.130;8.526;2022-12-05T07:12:17;100169.44;;;5.81;53.21
27685;BME280;46113;50.130;8.526;2022-12-05T07:14:44;100170.69;;;5.65;53.67
27685;BME280;46113;50.130;8.526;2022-12-05T07:17:15;100173.63;;;5.90;53.72
27685;BME280;46113;50.130;8.526;2022-12-05T07:19:53;100176.88;;;5.62;53.51
27685;BME280;46113;50.130;8.526;2022-12-05T07:22:21;100179.56;;;5.18;54.56
27685;BME280;46113;50.130;8.526;2022-12-05T07:24:50;100186.25;;;4.89;54.82
27685;BME280;46113;50.130;8.526;2022-12-05T07:27:17;100184.28;;;4.53;56.65
27685;BME280;46113;50.130;8.526;2022-12-05T07:29:52;100184.81;;;5.16;55.20
27685;BME280;46113;50.130;8.526;2022-12-05T07:32:18;100186.50;;;5.20;54.92
27685;BME280;46113;50.130;8.526;2022-12-05T07:34:45;100199.94;;;5.48;54.55
27685;BME280;46113;50.130;8.526;2022-12-05T07:37:17;100196.22;;;5.58;54.22
27685;BME280;46113;50.130;8.526;2022-12-05T07:39:44;100200.03;;;5.44;54.30
27685;BME280;46113;50.130;8.526;2022-12-05T07:42:10;100200.56;;;5.16;55.31
27685;BME280;46113;50.130;8.526;2022-12-05T07:44:37;100206.94;;;5.03;55.46
27685;BME280;46113;50.130;8.526;2022-12-05T07:47:03;100209.31;;;5.17;55.25
27685;BME280;46113;50.130;8.526;2022-12-05T07:49:30;100213.66;;;5.18;55.39
27685;BME280;46113;50.130;8.526;2022-12-05T07:51:58;100215.63;;;5.06;55.26
27685;BME280;46113;50.130;8.526;2022-12-05T07:54:32;100215.47;;;5.14;55.49
27685;BME280;46113;50.130;8.526;2022-12-05T07:57:03;100213.28;;;5.37;55.04
27685;BME280;46113;50.130;8.526;2022-12-05T07:59:29;100216.88;;;4.87;56.19
27685;BME280;46113;50.130;8.526;2022-12-05T08:01:56;100217.81;;;4.84;56.14
27685;BME280;46113;50.130;8.526;2022-12-05T08:04:23;100222.34;;;4.74;56.87
27685;BME280;46113;50.130;8.526;2022-12-05T08:06:50;100231.63;;;4.92;56.03
27685;BME280;46113;50.130;8.526;2022-12-05T08:09:17;100240.31;;;4.96;56.33
27685;BME280;46113;50.130;8.526;2022-12-05T08:11:43;100233.88;;;4.65;57.19
27685;BME280;46113;50.130;8.526;2022-12-05T08:14:21;100236.09;;;4.87;56.66
27685;BME280;46113;50.130;8.526;2022-12-05T08:16:48;100243.06;;;4.38;57.80
27685;BME280;46113;50.130;8.526;2022-12-05T08:19:23;100238.22;;;4.65;57.26
27685;BME280;46113;50.130;8.526;2022-12-05T08:21:55;100238.19;;;5.15;56.31
27685;BME280;46113;50.130;8.526;2022-12-05T08:24:25;100239.78;;;4.75;56.86
27685;BME280;46113;50.130;8.526;2022-12-05T08:26:52;100244.97;;;4.80;57.18
27685;BME280;46113;50.130;8.526;2022-12-05T08:29:21;100243.09;;;4.88;56.76
27685;BME280;46113;50.130;8.526;2022-12-05T08:31:49;100238.97;;;4.73;57.40
27685;BME280;46113;50.130;8.526;2022-12-05T08:34:21;100251.00;;;4.33;58.49
27685;BME280;46113;50.130;8.526;2022-12-05T08:36:51;100249.34;;;4.79;57.51
27685;BME280;46113;50.130;8.526;2022-12-05T08:42:38;100258.34;;;4.64;57.42
27685;BME280;46113;50.130;8.526;2022-12-05T08:45:05;100268.00;;;5.11;56.16
27685;BME280;46113;50.130;8.526;2022-12-05T08:47:32;100279.06;;;4.80;57.78
27685;BME280;46113;50.130;8.526;2022-12-05T08:49:58;100282.84;;;4.07;58.88
27685;BME280;46113;50.130;8.526;2022-12-05T08:52:25;100281.16;;;4.59;56.99
27685;BME280;46113;50.130;8.526;2022-12-05T08:54:52;100282.97;;;4.56;57.46
27685;BME280;46113;50.130;8.526;2022-12-05T08:57:18;100285.59;;;5.06;55.92
27685;BME280;46113;50.130;8.526;2022-12-05T08:59:47;100284.81;;;4.99;56.80
27685;BME280;46113;50.130;8.526;2022-12-05T09:02:14;100288.75;;;4.75;57.35
27685;BME280;46113;50.130;8.526;2022-12-05T09:04:40;100283.41;;;5.28;55.99
27685;BME280;46113;50.130;8.526;2022-12-05T09:07:07;100288.03;;;5.15;56.23
27685;BME280;46113;50.130;8.526;2022-12-05T09:09:33;100284.38;;;5.24;56.20
27685;BME280;46113;50.130;8.526;2022-12-05T09:12:00;100285.03;;;5.80;55.32
27685;BME280;46113;50.130;8.526;2022-12-05T09:14:34;100291.72;;;5.06;56.40
27685;BME280;46113;50.130;8.526;2022-12-05T09:17:00;100300.47;;;5.51;55.65
27685;BME280;46113;50.130;8.526;2022-12-05T09:19:27;100301.78;;;4.78;57.15
27685;BME280;46113;50.130;8.526;2022-12-05T09:21:54;100304.09;;;5.47;55.54
27685;BME280;46113;50.130;8.526;2022-12-05T09:24:24;100302.06;;;5.13;55.78
27685;BME280;46113;50.130;8.526;2022-12-05T09:26:51;100305.28;;;4.78;57.09
27685;BME280;46113;50.130;8.526;2022-12-05T09:29:18;100300.22;;;5.19;56.30
27685;BME280;46113;50.130;8.526;2022-12-05T09:31:47;100297.47;;;5.71;55.05
27685;BME280;46113;50.130;8.526;2022-12-05T09:34:16;100301.06;;;5.18;55.92
27685;BME280;46113;50.130;8.526;2022-12-05T09:36:44;100302.00;;;5.63;55.30
27685;BME280;46113;50.130;8.526;2022-12-05T09:39:37;100308.94;;;4.70;57.30
27685;BME280;46113;50.130;8.526;2022-12-05T09:48:19;100315.59;;;4.89;57.41
27685;BME280;46113;50.130;8.526;2022-12-05T09:59:33;100313.09;;;5.30;56.78
27685;BME280;46113;50.130;8.526;2022-12-05T10:06:22;100307.84;;;5.32;56.21
27685;BME280;46113;50.130;8.526;2022-12-05T10:17:23;100294.28;;;6.36;53.91
27685;BME280;46113;50.130;8.526;2022-12-05T10:19:57;100296.16;;;6.67;53.02
27685;BME280;46113;50.130;8.526;2022-12-05T10:22:49;100299.94;;;6.57;53.39
27685;BME280;46113;50.130;8.526;2022-12-05T10:25:19;100306.44;;;5.14;56.02
27685;BME280;46113;50.130;8.526;2022-12-05T10:27:51;100304.38;;;5.30;55.46
27685;BME280;46113;50.130;8.526;2022-12-05T10:30:22;100295.63;;;5.75;55.06
27685;BME280;46113;50.130;8.526;2022-12-05T10:32:57;100295.16;;;5.97;54.01
27685;BME280;46113;50.130;8.526;2022-12-05T10:38:46;100292.78;;;5.42;55.04
27685;BME280;46113;50.130;8.526;2022-12-05T10:41:13;100282.75;;;5.64;55.56
27685;BME280;46113;50.130;8.526;2022-12-05T10:43:42;100286.44;;;5.95;54.39
27685;BME280;46113;50.130;8.526;2022-12-05T10:46:12;100290.25;;;5.37;55.44
27685;BME280;46113;50.130;8.526;2022-12-05T10:48:44;100282.66;;;5.23;56.00
27685;BME280;46113;50.130;8.526;2022-12-05T10:51:23;100281.97;;;4.61;57.64
27685;BME280;46113;50.130;8.526;2022-12-05T10:53:52;100276.34;;;5.76;55.30
27685;BME280;46113;50.130;8.526;2022-12-05T11:03:44;100266.78;;;6.13;54.92
27685;BME280;46113;50.130;8.526;2022-12-05T11:10:32;100272.25;;;4.70;57.38
27685;BME280;46113;50.130;8.526;2022-12-05T11:13:00;100270.84;;;5.89;55.35
27685;BME280;46113;50.130;8.526;2022-12-05T11:15:30;100279.09;;;5.26;56.73
27685;BME280;46113;50.130;8.526;2022-12-05T11:21:12;100279.53;;;5.91;55.53
27685;BME280;46113;50.130;8.526;2022-12-05T11:23:57;100277.66;;;5.96;55.08
27685;BME280;46113;50.130;8.526;2022-12-05T11:26:45;100277.63;;;6.37;54.28
27685;BME280;46113;50.130;8.526;2022-12-05T11:29:30;100277.63;;;6.72;53.36
27685;BME280;46113;50.130;8.526;2022-12-05T11:31:57;100280.56;;;5.85;54.79
27685;BME280;46113;50.130;8.526;2022-12-05T11:34:38;100282.13;;;5.92;54.84
27685;BME280;46113;50.130;8.526;2022-12-05T11:37:13;100282.44;;;5.78;55.02
27685;BME280;46113;50.130;8.526;2022-12-05T11:39:43;100282.31;;;6.60;53.15
27685;BME280;46113;50.130;8.526;2022-12-05T11:45:36;100293.59;;;7.34;51.67
27685;BME280;46113;50.130;8.526;2022-12-05T12:02:51;100277.19;;;6.89;52.72
27685;BME280;46113;50.130;8.526;2022-12-05T12:20:34;100281.88;;;7.12;52.81
27685;BME280;46113;50.130;8.526;2022-12-05T12:30:11;100275.97;;;7.02;52.91
27685;BME280;46113;50.130;8.526;2022-12-05T12:33:03;100277.03;;;6.95;52.77
27685;BME280;46113;50.130;8.526;2022-12-05T12:35:49;100274.53;;;6.56;53.91
27685;BME280;46113;50.130;8.526;2022-12-05T12:47:02;100276.41;;;7.52;52.10
27685;BME280;46113;50.130;8.526;2022-12-05T13:02:17;100275.59;;;7.80;51.20
27685;BME280;46113;50.130;8.526;2022-12-05T13:07:23;100269.41;;;7.51;51.67
27685;BME280;46113;50.130;8.526;2022-12-05T13:09:55;100284.59;;;6.73;53.59
27685;BME280;46113;50.130;8.526;2022-12-05T13:12:27;100279.22;;;6.79;53.68
27685;BME280;46113;50.130;8.526;2022-12-05T13:15:01;100268.91;;;7.68;51.84
27685;BME280;46113;50.130;8.526;2022-12-05T13:17:56;100268.63;;;8.34;50.46
27685;BME280;46113;50.130;8.526;2022-12-05T13:20:27;100270.97;;;8.44;50.07
27685;BME280;46113;50.130;8.526;2022-12-05T13:22:55;100282.63;;;8.08;50.70
27685;BME280;46113;50.130;8.526;2022-12-05T13:25:27;100277.94;;;7.89;51.00
27685;BME280;46113;50.130;8.526;2022-12-05T13:28:00;100283.28;;;7.26;52.38
27685;BME280;46113;50.130;8.526;2022-12-05T13:30:36;100278.03;;;7.56;51.78
27685;BME280;46113;50.130;8.526;2022-12-05T13:33:25;100275.81;;;7.72;51.63
27685;BME280;46113;50.130;8.526;2022-12-05T13:36:05;100272.78;;;7.56;51.76
27685;BME280;46113;50.130;8.526;2022-12-05T13:39:17;100280.97;;;7.45;52.17
27685;BME280;46113;50.130;8.526;2022-12-05T13:42:12;100283.22;;;6.92;53.42
27685;BME280;46113;50.130;8.526;2022-12-05T13:48:13;100282.91;;;7.70;52.07
27685;BME280;46113;50.130;8.526;2022-12-05T13:50:57;100289.00;;;7.09;52.95
27685;BME280;46113;50.130;8.526;2022-12-05T13:53:36;100283.72;;;7.42;52.26
27685;BME280;46113;50.130;8.526;2022-12-05T13:56:26;100284.13;;;7.26;53.10
27685;BME280;46113;50.130;8.526;2022-12-05T14:04:21;100290.16;;;7.62;52.43
27685;BME280;46113;50.130;8.526;2022-12-05T14:17:25;100295.69;;;8.13;51.24
27685;BME280;46113;50.130;8.526;2022-12-05T14:20:16;100297.44;;;7.83;52.03
27685;BME280;46113;50.130;8.526;2022-12-05T14:25:51;100292.06;;;8.44;50.57
27685;BME280;46113;50.130;8.526;2022-12-05T14:32:13;100295.66;;;7.84;52.23
27685;BME280;46113;50.130;8.526;2022-12-05T14:38:00;100303.94;;;8.29;51.49
27685;BME280;46113;50.130;8.526;2022-12-05T14:40:37;100307.91;;;8.44;50.84
27685;BME280;46113;50.130;8.526;2022-12-05T14:43:06;100311.56;;;7.17;53.57
27685;BME280;46113;50.130;8.526;2022-12-05T14:54:14;100311.53;;;7.82;53.06
27685;BME280;46113;50.130;8.526;2022-12-05T14:56:51;100306.03;;;8.47;51.46
27685;BME280;46113;50.130;8.526;2022-12-05T15:50:48;100308.44;;;8.55;51.17
27685;BME280;46113;50.130;8.526;2022-12-05T15:53:39;100315.19;;;8.35;51.43
27685;BME280;46113;50.130;8.526;2022-12-05T16:07:13;100318.66;;;8.07;52.15
27685;BME280;46113;50.130;8.526;2022-12-05T16:09:58;100318.31;;;7.60;53.25
27685;BME280;46113;50.130;8.526;2022-12-05T16:12:38;100322.03;;;7.52;53.56
27685;BME280;46113;50.130;8.526;2022-12-05T16:15:18;100318.00;;;7.70;53.17
27685;BME280;46113;50.130;8.526;2022-12-05T16:17:54;100312.56;;;7.77;53.32
27685;BME280;46113;50.130;8.526;2022-12-05T16:20:35;100317.66;;;7.81;52.62
27685;BME280;46113;50.130;8.526;2022-12-05T16:23:31;100312.41;;;7.81;52.56
27685;BME280;46113;50.130;8.526;2022-12-05T16:26:19;100329.28;;;3.11;63.37
27685;BME280;46113;50.130;8.526;2022-12-05T16:29:00;100331.28;;;0.82;74.10
27685;BME280;46113;50.130;8.526;2022-12-05T16:31:28;100335.59;;;0.61;76.69
27685;BME280;46113;50.130;8.526;2022-12-05T16:34:04;100332.13;;;0.50;79.98
27685;BME280;46113;50.130;8.526;2022-12-05T16:36:46;100335.59;;;0.46;81.40
27685;BME280;46113;50.130;8.526;2022-12-05T16:39:35;100331.28;;;0.63;81.56
27685;BME280;46113;50.130;8.526;2022-12-05T16:42:01;100330.41;;;0.66;80.50
27685;BME280;46113;50.130;8.526;2022-12-05T16:50:31;100340.84;;;1.09;80.37
27685;BME280;46113;50.130;8.526;2022-12-05T16:55:38;100327.78;;;0.92;81.84
27685;BME280;46113;50.130;8.526;2022-12-05T16:58:10;100327.78;;;0.85;82.15
27685;BME280;46113;50.130;8.526;2022-12-05T17:00:41;100325.22;;;0.91;82.22
27685;BME280;46113;50.130;8.526;2022-12-05T17:03:12;100330.41;;;1.11;81.57
27685;BME280;46113;50.130;8.526;2022-12-05T17:05:59;100321.72;;;1.11;82.00
27685;BME280;46113;50.130;8.526;2022-12-05T17:08:26;100332.16;;;1.01;81.91
27685;BME280;46113;50.130;8.526;2022-12-05T17:10:53;100333.88;;;1.05;82.03
27685;BME280;46113;50.130;8.526;2022-12-05T17:13:20;100329.56;;;1.06;82.20
27685;BME280;46113;50.130;8.526;2022-12-05T17:15:47;100334.75;;;1.18;81.94
27685;BME280;46113;50.130;8.526;2022-12-05T17:18:18;100333.00;;;1.19;81.77
27685;BME280;46113;50.130;8.526;2022-12-05T17:20:59;100336.47;;;1.22;81.29
27685;BME280;46113;50.130;8.526;2022-12-05T17:23:27;100332.69;;;2.06;75.66
27685;BME280;46113;50.130;8.526;2022-12-05T17:25:55;100337.38;;;1.17;80.47
27685;BME280;46113;50.130;8.526;2022-12-05T17:28:28;100340.00;;;1.09;81.94
27685;BME280;46113;50.130;8.526;2022-12-05T17:30:55;100347.78;;;1.23;81.66
27685;BME280;46113;50.130;8.526;2022-12-05T17:33:23;100339.63;;;4.03;77.50
27685;BME280;46113;50.130;8.526;2022-12-05T17:35:55;100341.72;;;1.04;81.05
27685;BME280;46113;50.130;8.526;2022-12-05T17:38:22;100345.16;;;0.79;82.24
27685;BME280;46113;50.130;8.526;2022-12-05T17:40:51;100348.63;;;0.92;82.32
27685;BME280;46113;50.130;8.526;2022-12-05T17:43:18;100349.50;;;0.74;82.59
27685;BME280;46113;50.130;8.526;2022-12-05T17:45:51;100357.31;;;0.76;83.21
27685;BME280;46113;50.130;8.526;2022-12-05T17:48:18;100359.94;;;0.99;82.59
27685;BME280;46113;50.130;8.526;2022-12-05T17:50:46;100354.75;;;1.12;82.16
27685;BME280;46113;50.130;8.526;2022-12-05T17:53:15;100353.00;;;1.23;82.32
27685;BME280;46113;50.130;8.526;2022-12-05T17:55:43;100352.09;;;1.22;81.75
27685;BME280;46113;50.130;8.526;2022-12-05T17:58:21;100353.88;;;1.20;81.49
27685;BME280;46113;50.130;8.526;2022-12-05T18:05:18;100352.09;;;1.35;81.52
27685;BME280;46113;50.130;8.526;2022-12-05T18:07:45;100358.22;;;1.23;81.47
27685;BME280;46113;50.130;8.526;2022-12-05T18:10:15;100356.47;;;1.19;81.40
27685;BME280;46113;50.130;8.526;2022-12-05T18:12:44;100352.97;;;1.32;81.65
27685;BME280;46113;50.130;8.526;2022-12-05T18:15:17;100358.19;;;1.28;81.75
27685;BME280;46113;50.130;8.526;2022-12-05T18:17:44;100364.25;;;1.42;81.38
27685;BME280;46113;50.130;8.526;2022-12-05T18:20:12;100363.41;;;1.29;81.59
27685;BME280;46113;50.130;8.526;2022-12-05T18:22:42;100365.13;;;0.97;82.66
27685;BME280;46113;50.130;8.526;2022-12-05T18:25:17;100359.06;;;1.17;82.43
27685;BME280;46113;50.130;8.526;2022-12-05T18:27:48;100354.75;;;1.04;83.53
27685;BME280;46113;50.130;8.526;2022-12-05T18:30:34;100357.34;;;1.12;83.48
27685;BME280;46113;50.130;8.526;2022-12-05T18:33:01;100359.94;;;1.02;83.65
27685;BME280;46113;50.130;8.526;2022-12-05T18:35:42;100359.09;;;0.99;84.29
27685;BME280;46113;50.130;8.526;2022-12-05T18:38:12;100360.84;;;1.09;83.55
27685;BME280;46113;50.130;8.526;2022-12-05T18:40:41;100360.81;;;1.03;84.18
27685;BME280;46113;50.130;8.526;2022-12-05T18:43:13;100358.22;;;1.17;84.06
27685;BME280;46113;50.130;8.526;2022-12-05T18:46:03;100362.53;;;1.13;83.99
27685;BME280;46113;50.130;8.526;2022-12-05T18:52:11;100358.19;;;0.98;84.62
27685;BME280;46113;50.130;8.526;2022-12-05T18:54:45;100361.69;;;0.99;84.29
27685;BME280;46113;50.130;8.526;2022-12-05T18:57:54;100358.19;;;0.87;85.78
27685;BME280;46113;50.130;8.526;2022-12-05T19:00:31;100359.94;;;0.90;85.86
27685;BME280;46113;50.130;8.526;2022-12-05T19:03:01;100365.19;;;1.04;85.38
27685;BME280;46113;50.130;8.526;2022-12-05T19:05:37;100362.56;;;1.07;85.49
27685;BME280;46113;50.130;8.526;2022-12-05T19:08:06;100357.31;;;0.97;85.65
27685;BME280;46113;50.130;8.526;2022-12-05T19:10:39;100363.44;;;0.93;85.61
27685;BME280;46113;50.130;8.526;2022-12-05T19:13:18;100359.06;;;0.95;85.98
27685;BME280;46113;50.130;8.526;2022-12-05T19:16:24;100356.47;;;0.86;85.76
27685;BME280;46113;50.130;8.526;2022-12-05T19:19:02;100356.47;;;0.80;85.65
27685;BME280;46113;50.130;8.526;2022-12-05T19:21:34;100360.78;;;0.95;85.82
27685;BME280;46113;50.130;8.526;2022-12-05T19:24:03;100360.78;;;0.87;86.37
27685;BME280;46113;50.130;8.526;2022-12-05T19:26:31;100363.41;;;0.79;85.79
27685;BME280;46113;50.130;8.526;2022-12-05T19:29:01;100356.47;;;0.86;81.58
27685;BME280;46113;50.130;8.526;2022-12-05T19:31:35;100365.13;;;0.59;85.68
27685;BME280;46113;50.130;8.526;2022-12-05T19:34:05;100357.31;;;0.66;86.25
27685;BME280;46113;50.130;8.526;2022-12-05T19:36:42;100364.25;;;0.52;86.45
27685;BME280;46113;50.130;8.526;2022-12-05T19:39:14;100364.25;;;0.46;87.07
27685;BME280;46113;50.130;8.526;2022-12-05T19:41:42;100365.13;;;0.40;87.35
27685;BME280;46113;50.130;8.526;2022-12-05T19:44:12;100363.38;;;0.37;86.59
27685;BME280;46113;50.130;8.526;2022-12-05T19:46:40;100363.41;;;0.45;86.77
27685;BME280;46113;50.130;8.526;2022-12-05T19:49:09;100365.09;;;0.37;86.19
27685;BME280;46113;50.130;8.526;2022-12-05T19:54:33;100362.53;;;0.73;85.33
27685;BME280;46113;50.130;8.526;2022-12-05T19:57:00;100366.84;;;0.52;85.50
27685;BME280;46113;50.130;8.526;2022-12-05T19:59:37;100369.50;;;0.66;85.15
27685;BME280;46113;50.130;8.526;2022-12-05T20:02:04;100370.31;;;0.57;85.38
27685;BME280;46113;50.130;8.526;2022-12-05T20:04:31;100370.31;;;0.51;85.72
27685;BME280;46113;50.130;8.526;2022-12-05T20:06:58;100372.06;;;0.55;85.89
27685;BME280;46113;50.130;8.526;2022-12-05T20:09:26;100377.25;;;0.33;86.34
27685;BME280;46113;50.130;8.526;2022-12-05T20:11:56;100380.75;;;0.48;86.10
27685;BME280;46113;50.130;8.526;2022-12-05T20:14:24;100376.34;;;0.26;86.69
27685;BME280;46113;50.130;8.526;2022-12-05T20:16:59;100374.66;;;0.38;86.33
27685;BME280;46113;50.130;8.526;2022-12-05T20:19:29;100376.41;;;0.37;86.50
27685;BME280;46113;50.130;8.526;2022-12-05T20:22:04;100376.41;;;0.54;86.27
27685;BME280;46113;50.130;8.526;2022-12-05T20:24:51;100372.94;;;0.57;85.91
27685;BME280;46113;50.130;8.526;2022-12-05T20:27:34;100366.84;;;0.60;85.18
27685;BME280;46113;50.130;8.526;2022-12-05T20:30:04;100373.81;;;0.53;85.94
27685;BME280;46113;50.130;8.526;2022-12-05T20:32:32;100370.31;;;0.49;86.58
27685;BME280;46113;50.130;8.526;2022-12-05T20:35:02;100372.94;;;0.46;86.22
27685;BME280;46113;50.130;8.526;2022-12-05T20:37:37;100370.38;;;0.63;85.33
27685;BME280;46113;50.130;8.526;2022-12-05T20:40:04;100372.03;;;0.44;85.71
27685;BME280;46113;50.130;8.526;2022-12-05T20:42:31;100372.09;;;0.50;86.07
27685;BME280;46113;50.130;8.526;2022-12-05T20:44:58;100380.75;;;0.48;86.26
27685;BME280;46113;50.130;8.526;2022-12-05T20:47:25;100378.16;;;0.73;85.21
27685;BME280;46113;50.130;8.526;2022-12-05T20:49:52;100372.94;;;0.59;85.77
27685;BME280;46113;50.130;8.526;2022-12-05T20:52:19;100376.38;;;0.36;85.96
27685;BME280;46113;50.130;8.526;2022-12-05T20:54:46;100376.38;;;0.39;86.28
27685;BME280;46113;50.130;8.526;2022-12-05T20:57:12;100371.22;;;0.53;85.19
27685;BME280;46113;50.130;8.526;2022-12-05T20:59:39;100371.22;;;0.64;85.40
27685;BME280;46113;50.130;8.526;2022-12-05T21:02:06;100371.19;;;0.48;84.93
27685;BME280;46113;50.130;8.526;2022-12-05T21:04:39;100357.31;;;0.83;84.33
27685;BME280;46113;50.130;8.526;2022-12-05T21:07:06;100365.16;;;0.63;83.88
27685;BME280;46113;50.130;8.526;2022-12-05T21:09:33;100359.91;;;0.73;84.27
27685;BME280;46113;50.130;8.526;2022-12-05T21:12:01;100362.53;;;0.83;83.82
27685;BME280;46113;50.130;8.526;2022-12-05T21:14:28;100362.53;;;0.68;84.56
27685;BME280;46113;50.130;8.526;2022-12-05T21:16:54;100365.13;;;0.46;84.35
27685;BME280;46113;50.130;8.526;2022-12-05T21:19:21;100368.59;;;0.54;84.48
27685;BME280;46113;50.130;8.526;2022-12-05T21:21:49;100366.88;;;0.61;84.61
27685;BME280;46113;50.130;8.526;2022-12-05T21:24:16;100364.25;;;0.49;84.89
27685;BME280;46113;50.130;8.526;2022-12-05T21:26:43;100363.41;;;0.59;84.56
27685;BME280;46113;50.130;8.526;2022-12-05T21:29:09;100359.06;;;0.70;83.03
27685;BME280;46113;50.130;8.526;2022-12-05T21:31:39;100365.97;;;0.47;84.94
27685;BME280;46113;50.130;8.526;2022-12-05T21:34:14;100369.47;;;0.60;85.10
27685;BME280;46113;50.130;8.526;2022-12-05T21:36:41;100367.72;;;0.51;84.98
27685;BME280;46113;50.130;8.526;2022-12-05T21:39:08;100366.00;;;0.81;83.59
27685;BME280;46113;50.130;8.526;2022-12-05T21:41:36;100367.78;;;0.96;83.09
27685;BME280;46113;50.130;8.526;2022-12-05T21:44:10;100364.28;;;0.92;83.51
27685;BME280;46113;50.130;8.526;2022-12-05T21:46:37;100373.81;;;0.59;83.90
27685;BME280;46113;50.130;8.526;2022-12-05T21:49:05;100371.19;;;0.56;84.58
27685;BME280;46113;50.130;8.526;2022-12-05T21:51:31;100372.06;;;0.49;85.20
27685;BME280;46113;50.130;8.526;2022-12-05T21:53:58;100358.19;;;0.65;85.40
27685;BME280;46113;50.130;8.526;2022-12-05T21:56:25;100367.75;;;0.71;85.38
27685;BME280;46113;50.130;8.526;2022-12-05T21:58:52;100367.75;;;0.60;85.04
27685;BME280;46113;50.130;8.526;2022-12-05T22:01:21;100369.50;;;0.58;85.04
27685;BME280;46113;50.130;8.526;2022-12-05T22:03:54;100369.47;;;0.70;85.08
27685;BME280;46113;50.130;8.526;2022-12-05T22:06:21;100375.53;;;0.59;85.18
27685;BME280;46113;50.130;8.526;2022-12-05T22:08:48;100372.06;;;0.55;85.57
27685;BME280;46113;50.130;8.526;2022-12-05T22:11:19;100373.84;;;0.68;85.20
27685;BME280;46113;50.130;8.526;2022-12-05T22:13:52;100374.69;;;0.94;83.90
27685;BME280;46113;50.130;8.526;2022-12-05T22:16:19;100372.09;;;0.92;83.99
27685;BME280;46113;50.130;8.526;2022-12-05T22:18:46;100372.13;;;1.14;83.24
27685;BME280;46113;50.130;8.526;2022-12-05T22:21:18;100373.88;;;1.18;82.99
27685;BME280;46113;50.130;8.526;2022-12-05T22:23:46;100370.38;;;0.85;83.67
27685;BME280;46113;50.130;8.526;2022-12-05T22:26:16;100366.88;;;0.85;83.65
27685;BME280;46113;50.130;8.526;2022-12-05T22:28:44;100366.03;;;0.90;83.43
27685;BME280;46113;50.130;8.526;2022-12-05T22:31:13;100364.28;;;0.86;83.39
27685;BME280;46113;50.130;8.526;2022-12-05T22:33:41;100365.16;;;0.76;83.81
27685;BME280;46113;50.130;8.526;2022-12-05T22:36:10;100359.06;;;0.80;83.77
27685;BME280;46113;50.130;8.526;2022-12-05T22:38:38;100364.25;;;1.00;83.40